createdAt,value
2022-09-15T00:01:42.384Z,26.24
2022-09-15T00:04:49.610Z,26.21
2022-09-15T00:08:16.474Z,26.15
2022-09-15T00:11:35.634Z,26.10
2022-09-15T00:14:42.605Z,26.05
2022-09-15T00:18:08.613Z,26.01
2022-09-15T00:20:42.108Z,25.97
2022-09-15T00:24:11.476Z,25.93
2022-09-15T00:27:38.118Z,25.85
2022-09-15T00:31:05.888Z,25.77
2022-09-15T00:34:34.990Z,25.67
2022-09-15T00:37:52.617Z,25.60
2022-09-15T00:41:17.305Z,25.60
2022-09-15T00:44:44.991Z,25.53
2022-09-15T00:47:55.311Z,25.47
2022-09-15T00:51:12.647Z,25.43
2022-09-15T00:54:40.009Z,25.35
2022-09-15T00:58:03.044Z,25.29
2022-09-15T01:01:04.443Z,25.22
2022-09-15T01:04:22.144Z,25.15
2022-09-15T01:07:47.110Z,25.06
2022-09-15T01:11:05.203Z,24.96
2022-09-15T01:14:14.144Z,24.86
2022-09-15T01:17:21.565Z,24.82
2022-09-15T01:20:45.648Z,24.76
2022-09-15T01:24:13.210Z,24.69
2022-09-15T01:27:42.411Z,24.60
2022-09-15T01:31:05.123Z,24.50
2022-09-15T01:34:44.692Z,24.42
2022-09-15T01:37:54.615Z,24.34
2022-09-15T01:41:21.107Z,24.27
2022-09-15T01:44:44.438Z,24.19
2022-09-15T01:48:02.329Z,24.11
2022-09-15T01:51:29.942Z,24.03
2022-09-15T01:55:02.064Z,23.90
2022-09-15T01:58:17.999Z,23.82
2022-09-15T02:01:49.002Z,23.73
2022-09-15T02:05:17.871Z,23.64
2022-09-15T02:08:48.340Z,23.54
2022-09-15T02:12:18.736Z,23.44
2022-09-15T02:15:46.244Z,23.33
2022-09-15T02:19:14.157Z,23.24
2022-09-15T02:22:56.391Z,23.13
2022-09-15T02:26:11.805Z,23.01
2022-09-15T02:29:29.333Z,22.91
2022-09-15T02:32:46.519Z,22.81
2022-09-15T02:35:49.613Z,22.75
2022-09-15T02:38:59.147Z,22.66
2022-09-15T02:42:27.447Z,22.58
2022-09-15T02:45:36.223Z,22.49
2022-09-15T02:48:33.804Z,22.40
2022-09-15T02:52:01.900Z,22.33
2022-09-15T02:55:13.895Z,22.24
2022-09-15T02:58:41.934Z,22.17
2022-09-15T03:01:59.354Z,22.09
2022-09-15T03:05:16.061Z,22.02
2022-09-15T03:08:35.733Z,21.95
2022-09-15T03:11:54.150Z,21.89
2022-09-15T03:15:19.897Z,21.82
2022-09-15T03:18:39.522Z,21.76
2022-09-15T03:21:56.594Z,21.70
2022-09-15T03:25:04.223Z,21.65
2022-09-15T03:28:32.274Z,21.61
2022-09-15T03:31:49.473Z,21.57
2022-09-15T03:35:10.104Z,21.51
2022-09-15T03:38:38.081Z,21.43
2022-09-15T03:42:00.236Z,21.36
2022-09-15T03:45:27.000Z,21.30
2022-09-15T03:48:43.943Z,21.25
2022-09-15T03:51:53.702Z,21.21
2022-09-15T03:55:13.738Z,21.19
2022-09-15T03:58:21.420Z,21.14
2022-09-15T04:01:48.438Z,21.10
2022-09-15T04:05:05.136Z,21.03
2022-09-15T04:08:32.191Z,21.00
2022-09-15T04:11:45.848Z,20.97
2022-09-15T04:15:03.208Z,20.95
2022-09-15T04:18:05.291Z,20.92
2022-09-15T04:21:31.200Z,20.90
2022-09-15T04:24:56.807Z,20.86
2022-09-15T04:27:39.306Z,20.79
2022-09-15T04:30:45.181Z,20.80
2022-09-15T04:34:12.493Z,20.77
2022-09-15T04:37:39.411Z,20.74
2022-09-15T04:41:08.431Z,20.71
2022-09-15T04:44:29.232Z,20.67
2022-09-15T04:47:56.430Z,20.64
2022-09-15T04:51:13.905Z,20.62
2022-09-15T04:53:40.696Z,20.59
2022-09-15T04:56:57.551Z,20.57
2022-09-15T05:00:24.082Z,20.55
2022-09-15T05:03:40.389Z,20.52
2022-09-15T05:07:06.022Z,20.50
2022-09-15T05:10:25.568Z,20.47
2022-09-15T05:13:25.158Z,20.46
2022-09-15T05:16:24.418Z,20.45
2022-09-15T05:19:42.577Z,20.44
2022-09-15T05:22:49.216Z,20.40
2022-09-15T05:25:40.431Z,20.38
2022-09-15T05:29:10.012Z,20.36
2022-09-15T05:32:37.657Z,20.34
2022-09-15T05:35:33.248Z,20.31
2022-09-15T05:38:59.802Z,20.30
2022-09-15T05:41:55.797Z,20.28
2022-09-15T05:45:11.841Z,20.25
2022-09-15T05:48:29.341Z,20.22
2022-09-15T05:51:57.007Z,20.19
2022-09-15T05:55:16.400Z,20.17
2022-09-15T05:57:52.154Z,20.14
2022-09-15T06:01:10.181Z,20.10
2022-09-15T06:04:18.727Z,20.05
2022-09-15T06:07:36.002Z,20.01
2022-09-15T06:10:50.395Z,19.97
2022-09-15T06:13:52.185Z,19.93
2022-09-15T06:16:44.000Z,19.92
2022-09-15T06:19:41.564Z,19.91
2022-09-15T06:23:07.578Z,19.90
2022-09-15T06:26:36.201Z,19.90
2022-09-15T06:29:38.228Z,19.89
2022-09-15T06:33:03.366Z,19.86
2022-09-15T06:36:23.906Z,19.87
2022-09-15T06:39:51.724Z,19.85
2022-09-15T06:43:08.546Z,19.84
2022-09-15T06:46:05.945Z,19.83
2022-09-15T06:48:59.814Z,19.82
2022-09-15T06:52:26.813Z,19.81
2022-09-15T06:55:41.162Z,19.81
2022-09-15T06:58:49.903Z,19.79
2022-09-15T07:02:24.992Z,19.77
2022-09-15T07:05:21.194Z,19.75
2022-09-15T07:08:47.930Z,19.73
2022-09-15T07:12:18.041Z,19.71
2022-09-15T07:15:33.449Z,19.70
2022-09-15T07:18:43.343Z,19.69
2022-09-15T07:22:11.626Z,19.68
2022-09-15T07:25:15.608Z,19.66
2022-09-15T07:28:24.815Z,19.64
2022-09-15T07:31:45.572Z,19.63
2022-09-15T07:35:13.205Z,19.62
2022-09-15T07:38:44.129Z,19.60
2022-09-15T07:41:56.439Z,19.58
2022-09-15T07:45:04.525Z,19.55
2022-09-15T07:48:23.253Z,19.52
2022-09-15T07:51:52.745Z,19.51
2022-09-15T07:55:14.309Z,19.50
2022-09-15T07:58:41.984Z,19.49
2022-09-15T08:02:00.425Z,19.48
2022-09-15T08:05:05.784Z,19.46
2022-09-15T08:08:32.961Z,19.44
2022-09-15T08:11:59.509Z,19.42
2022-09-15T08:15:20.151Z,19.40
2022-09-15T08:18:47.410Z,19.38
2022-09-15T08:21:58.351Z,19.37
2022-09-15T08:25:18.271Z,19.36
2022-09-15T08:28:44.952Z,19.35
2022-09-15T08:31:55.700Z,19.34
2022-09-15T08:35:09.714Z,19.33
2022-09-15T08:38:07.796Z,19.32
2022-09-15T08:41:02.111Z,19.30
2022-09-15T08:44:17.574Z,19.28
2022-09-15T08:47:27.741Z,19.25
2022-09-15T08:50:54.510Z,19.24
2022-09-15T08:54:12.895Z,19.23
2022-09-15T08:57:32.925Z,19.21
2022-09-15T09:00:42.249Z,19.19
2022-09-15T09:04:18.064Z,19.18
2022-09-15T09:08:01.650Z,19.16
2022-09-15T09:11:22.340Z,19.13
2022-09-15T09:14:49.977Z,19.10
2022-09-15T09:18:15.439Z,19.07
2022-09-15T09:21:45.032Z,19.04
2022-09-15T09:24:55.000Z,19.00
2022-09-15T09:27:52.558Z,18.97
2022-09-15T09:31:09.463Z,18.95
2022-09-15T09:34:09.218Z,18.94
2022-09-15T09:37:29.385Z,18.94
2022-09-15T09:40:27.998Z,18.92
2022-09-15T09:43:53.489Z,18.92
2022-09-15T09:47:15.144Z,18.91
2022-09-15T09:50:01.709Z,18.91
2022-09-15T09:52:58.784Z,18.91
2022-09-15T09:55:58.221Z,18.91
2022-09-15T09:58:48.273Z,18.90
2022-09-15T10:02:12.358Z,18.88
2022-09-15T10:05:06.840Z,18.88
2022-09-15T10:08:15.123Z,18.86
2022-09-15T10:11:18.380Z,18.84
2022-09-15T10:13:51.059Z,18.83
2022-09-15T10:16:51.551Z,18.83
2022-09-15T10:19:46.429Z,18.81
2022-09-15T10:23:09.836Z,18.80
2022-09-15T10:26:15.084Z,18.79
2022-09-15T10:29:54.547Z,18.78
2022-09-15T10:33:09.602Z,18.75
2022-09-15T10:36:13.253Z,18.72
2022-09-15T10:39:30.215Z,18.71
2022-09-15T10:43:04.103Z,18.68
2022-09-15T10:46:10.315Z,18.66
2022-09-15T10:49:08.535Z,18.64
2022-09-15T10:52:30.635Z,18.61
2022-09-15T10:55:22.019Z,18.60
2022-09-15T10:59:25.918Z,18.58
2022-09-15T11:03:04.314Z,18.55
2022-09-15T11:06:48.586Z,18.49
2022-09-15T11:10:16.885Z,18.47
2022-09-15T11:13:43.362Z,18.45
2022-09-15T11:16:39.220Z,18.44
2022-09-15T11:20:33.579Z,18.42
2022-09-15T11:23:49.208Z,18.41
2022-09-15T11:26:53.307Z,18.38
2022-09-15T11:30:05.105Z,18.34
2022-09-15T11:33:28.435Z,18.30
2022-09-15T11:36:54.327Z,18.29
2022-09-15T11:40:15.181Z,18.26
2022-09-15T11:43:34.319Z,18.24
2022-09-15T11:47:00.959Z,18.21
2022-09-15T11:50:26.210Z,18.17
2022-09-15T11:54:03.272Z,18.14
2022-09-15T11:57:31.934Z,18.11
2022-09-15T12:00:54.863Z,18.08
2022-09-15T12:04:43.228Z,18.06
2022-09-15T12:08:27.972Z,18.03
2022-09-15T12:11:24.190Z,18.01
2022-09-15T12:14:27.961Z,17.99
2022-09-15T12:17:55.635Z,17.97
2022-09-15T12:21:06.364Z,17.95
2022-09-15T12:24:05.109Z,17.94
2022-09-15T12:27:15.323Z,17.93
2022-09-15T12:30:24.127Z,17.92
2022-09-15T12:33:53.592Z,17.91
2022-09-15T12:36:53.983Z,17.88
2022-09-15T12:40:16.144Z,17.87
2022-09-15T12:43:36.817Z,17.86
2022-09-15T12:47:03.558Z,17.83
2022-09-15T12:50:01.454Z,17.81
2022-09-15T12:53:02.162Z,17.79
2022-09-15T12:56:13.979Z,17.77
2022-09-15T12:59:29.214Z,17.75
2022-09-15T13:02:55.601Z,17.74
2022-09-15T13:06:13.784Z,17.72
2022-09-15T13:09:45.700Z,17.71
2022-09-15T13:13:12.660Z,17.69
2022-09-15T13:16:35.844Z,17.67
2022-09-15T13:19:48.948Z,17.65
2022-09-15T13:22:55.385Z,17.63
2022-09-15T13:25:57.071Z,17.61
2022-09-15T13:28:37.642Z,17.60
2022-09-15T13:31:57.954Z,17.61
2022-09-15T13:35:24.830Z,17.60
2022-09-15T13:38:34.044Z,17.58
2022-09-15T13:42:01.898Z,17.56
2022-09-15T13:45:13.484Z,17.54
2022-09-15T13:48:38.898Z,17.52
2022-09-15T13:51:51.485Z,17.51
2022-09-15T13:55:17.142Z,17.50
2022-09-15T14:02:03.184Z,17.49
2022-09-15T14:04:53.545Z,17.47
2022-09-15T14:08:17.530Z,17.45
2022-09-15T14:11:28.505Z,17.44
2022-09-15T14:14:56.451Z,17.42
2022-09-15T14:18:26.818Z,17.40
2022-09-15T14:21:38.238Z,17.40
2022-09-15T14:24:36.777Z,17.40
2022-09-15T14:27:45.336Z,17.39
2022-09-15T14:31:13.817Z,17.39
2022-09-15T14:34:33.232Z,17.41
2022-09-15T14:38:03.119Z,17.42
2022-09-15T14:41:14.601Z,17.42
2022-09-15T14:48:31.582Z,17.40
2022-09-15T14:51:50.615Z,17.40
2022-09-15T14:55:20.395Z,17.41
2022-09-15T14:58:46.459Z,17.41
2022-09-15T15:02:09.515Z,17.39
2022-09-15T15:05:52.214Z,17.38
2022-09-15T15:09:25.563Z,17.39
2022-09-15T15:12:27.858Z,17.38
2022-09-15T15:15:45.146Z,17.39
2022-09-15T15:19:10.591Z,17.41
2022-09-15T15:22:12.137Z,17.43
2022-09-15T15:25:14.373Z,17.44
2022-09-15T15:28:16.410Z,17.45
2022-09-15T15:31:42.714Z,17.46
2022-09-15T15:34:49.581Z,17.46
2022-09-15T15:38:19.229Z,17.49
2022-09-15T15:45:44.996Z,17.53
2022-09-15T15:49:04.979Z,17.57
2022-09-15T15:52:32.866Z,17.58
2022-09-15T15:56:02.116Z,17.61
2022-09-15T15:59:28.854Z,17.62
2022-09-15T16:02:56.206Z,17.62
2022-09-15T16:06:24.187Z,17.62
2022-09-15T16:09:50.962Z,17.65
2022-09-15T16:12:57.861Z,17.68
2022-09-15T16:16:08.869Z,17.72
2022-09-15T16:19:35.633Z,17.74
2022-09-15T16:22:54.373Z,17.79
2022-09-15T16:26:16.842Z,17.83
2022-09-15T16:29:27.111Z,17.88
2022-09-15T16:32:23.824Z,17.93
2022-09-15T16:35:10.967Z,17.99
2022-09-15T16:38:27.027Z,18.05
2022-09-15T16:41:00.946Z,18.09
2022-09-15T16:43:57.857Z,18.13
2022-09-15T16:47:15.387Z,18.17
2022-09-15T16:50:37.791Z,18.21
2022-09-15T16:54:07.926Z,18.28
2022-09-15T16:57:25.129Z,18.34
2022-09-15T17:00:23.635Z,18.39
2022-09-15T17:03:43.525Z,18.42
2022-09-15T17:06:43.224Z,18.50
2022-09-15T17:10:00.029Z,18.57
2022-09-15T17:13:02.184Z,18.63
2022-09-15T17:15:55.108Z,18.69
2022-09-15T17:19:14.598Z,18.75
2022-09-15T17:22:32.916Z,18.84
2022-09-15T17:25:42.495Z,18.94
2022-09-15T17:29:00.317Z,19.01
2022-09-15T17:32:12.314Z,19.10
2022-09-15T17:34:42.019Z,19.20
2022-09-15T17:38:01.676Z,19.27
2022-09-15T17:41:08.992Z,19.35
2022-09-15T17:44:10.226Z,19.43
2022-09-15T17:47:38.401Z,19.49
2022-09-15T17:50:49.817Z,19.61
2022-09-15T17:54:25.762Z,19.72
2022-09-15T17:57:12.521Z,19.82
2022-09-15T18:00:13.610Z,19.89
2022-09-15T18:03:43.053Z,20.00
2022-09-15T18:07:00.030Z,20.08
2022-09-15T18:09:39.533Z,20.18
2022-09-15T18:12:51.087Z,20.23
2022-09-15T18:15:27.428Z,20.27
2022-09-15T18:18:11.605Z,20.33
2022-09-15T18:21:13.812Z,20.34
2022-09-15T18:28:13.358Z,20.38
2022-09-15T18:31:40.097Z,20.40
2022-09-15T18:34:54.309Z,20.40
2022-09-15T18:38:03.292Z,20.46
2022-09-15T18:41:20.226Z,20.70
2022-09-15T18:44:47.791Z,21.23
2022-09-15T18:47:56.628Z,21.83
2022-09-15T18:51:29.110Z,22.28
2022-09-15T18:55:01.632Z,22.79
2022-09-15T18:58:01.192Z,23.23
2022-09-15T19:00:53.349Z,23.64
2022-09-15T19:04:20.395Z,23.97
2022-09-15T19:07:28.540Z,24.30
2022-09-15T19:10:48.910Z,24.61
2022-09-15T19:14:05.580Z,24.99
2022-09-15T19:16:58.120Z,25.26
2022-09-15T19:19:57.565Z,25.51
2022-09-15T19:23:24.546Z,25.66
2022-09-15T19:26:30.529Z,25.89
2022-09-15T19:29:58.554Z,26.15
2022-09-15T19:32:47.636Z,26.33
2022-09-15T19:36:10.831Z,26.50
2022-09-15T19:39:42.157Z,26.76
2022-09-15T19:43:09.188Z,26.92
2022-09-15T19:46:28.178Z,27.09
2022-09-15T19:49:45.350Z,27.28
2022-09-15T19:53:13.050Z,27.38
2022-09-15T19:56:40.319Z,27.52
2022-09-15T19:59:49.954Z,27.60
2022-09-15T20:03:17.290Z,27.53
2022-09-15T20:06:38.265Z,27.36
2022-09-15T20:10:05.688Z,27.20
2022-09-15T20:13:24.444Z,27.30
2022-09-15T20:17:01.101Z,27.43
2022-09-15T20:20:21.724Z,27.59
2022-09-15T20:23:10.014Z,27.72
2022-09-15T20:26:27.669Z,27.83
2022-09-15T20:29:28.291Z,27.93
2022-09-15T20:32:44.888Z,28.02
2022-09-15T20:35:51.836Z,27.99
2022-09-15T20:39:09.169Z,27.88
2022-09-15T20:42:26.293Z,27.71
2022-09-15T20:45:57.249Z,27.67
2022-09-15T20:49:05.962Z,27.66
2022-09-15T20:52:36.013Z,27.82
2022-09-15T20:55:29.659Z,28.04
2022-09-15T20:58:46.796Z,28.18
2022-09-15T21:01:52.061Z,28.19
2022-09-15T21:04:55.320Z,28.19
2022-09-15T21:07:52.200Z,28.30
2022-09-15T21:11:19.622Z,28.35
2022-09-15T21:14:27.629Z,28.35
2022-09-15T21:17:17.825Z,28.31
2022-09-15T21:20:45.414Z,28.24
2022-09-15T21:24:05.473Z,28.26
2022-09-15T21:27:24.035Z,28.35
2022-09-15T21:30:00.711Z,28.38
2022-09-15T21:33:19.394Z,28.45
2022-09-15T21:36:30.671Z,28.55
2022-09-15T21:39:19.661Z,28.49
2022-09-15T21:42:17.669Z,28.44
2022-09-15T21:45:14.863Z,28.33
2022-09-15T21:48:29.944Z,28.26
2022-09-15T21:51:25.735Z,28.22
2022-09-15T21:54:50.077Z,28.16
2022-09-15T21:57:23.284Z,28.15
2022-09-15T22:00:37.227Z,28.16
2022-09-15T22:03:18.214Z,28.25
2022-09-15T22:06:09.913Z,28.31
2022-09-15T22:09:16.641Z,28.32
2022-09-15T22:12:43.613Z,28.23
2022-09-15T22:15:40.664Z,28.20
2022-09-15T22:19:08.148Z,28.20
2022-09-15T22:21:48.509Z,28.11
2022-09-15T22:25:17.513Z,28.05
2022-09-15T22:28:20.502Z,27.88
2022-09-15T22:31:38.248Z,27.73
2022-09-15T22:35:06.710Z,27.75
2022-09-15T22:37:50.172Z,27.78
2022-09-15T22:40:37.394Z,27.86
2022-09-15T22:43:49.575Z,27.90
2022-09-15T22:47:06.587Z,27.93
2022-09-15T22:49:58.539Z,27.90
2022-09-15T22:53:24.466Z,27.92
2022-09-15T22:56:27.297Z,27.91
2022-09-15T22:59:08.332Z,27.82
2022-09-15T23:02:16.326Z,27.77
2022-09-15T23:05:42.920Z,27.68
2022-09-15T23:08:43.772Z,27.63
2022-09-15T23:12:11.337Z,27.55
2022-09-15T23:14:32.637Z,27.53
2022-09-15T23:17:46.837Z,27.51
2022-09-15T23:21:03.704Z,27.54
2022-09-15T23:24:31.332Z,27.54
2022-09-15T23:27:39.425Z,27.50
2022-09-15T23:30:56.600Z,27.53
2022-09-15T23:34:23.577Z,27.52
2022-09-15T23:37:40.089Z,27.46
2022-09-15T23:40:59.889Z,27.46
2022-09-15T23:44:01.852Z,27.47
2022-09-15T23:47:28.516Z,27.43
2022-09-15T23:50:33.953Z,27.40
2022-09-15T23:54:00.369Z,27.39
2022-09-15T23:56:48.226Z,27.34
